Time;durP1;ratioP1;P1;durP2;ratioP2;P2;SDS_P1;SDS_P2;PMS_P1;PMS_P2;Temp;Humidity;BMP_temperature;BMP_pressure;BME280_temperature;BME280_humidity;BME280_pressure;Samples;Min_cycle;Max_cycle;Signal;HPM_P1;HPM_P2
2021/10/12 00:00:59;;;;;;;1.17;1.00;;;;;19.20;101266.00;;;;2079669;28;20229;-55
2021/10/12 00:01:59;;;;;;;2.03;1.00;;;;;19.20;101270.00;;;;2082206;28;20291;-55
2021/10/12 00:02:59;;;;;;;1.53;1.10;;;;;19.20;101253.00;;;;2088165;28;20220;-55
2021/10/12 00:04:00;;;;;;;1.60;1.17;;;;;19.20;101261.00;;;;2088069;28;20351;-54
2021/10/12 00:05:00;;;;;;;1.87;1.10;;;;;19.20;101258.00;;;;2087844;28;20223;-54
2021/10/12 00:06:01;;;;;;;1.47;1.00;;;;;19.20;101261.00;;;;2087476;28;20304;-54
2021/10/12 00:07:01;;;;;;;1.30;1.00;;;;;19.20;101260.00;;;;2088052;28;20217;-55
2021/10/12 00:08:02;;;;;;;2.20;1.00;;;;;19.20;101261.00;;;;2088223;28;20794;-54
2021/10/12 00:09:02;;;;;;;1.90;1.20;;;;;19.20;101266.00;;;;2087647;28;20217;-55
2021/10/12 00:10:03;;;;;;;1.30;0.80;;;;;19.20;101252.00;;;;2087303;28;20217;-54
2021/10/12 00:11:04;;;;;;;1.15;0.85;;;;;19.20;101251.00;;;;2086948;28;20317;-54
2021/10/12 00:12:04;;;;;;;1.53;1.10;;;;;19.20;101252.00;;;;2088065;28;20275;-55
2021/10/12 00:13:04;;;;;;;1.43;1.00;;;;;19.20;101253.00;;;;2088184;28;20255;-55
2021/10/12 00:14:05;;;;;;;2.30;1.30;;;;;19.20;101254.00;;;;2087941;28;20690;-55
2021/10/12 00:15:06;;;;;;;1.27;0.97;;;;;19.20;101258.00;;;;2087860;28;20597;-55
2021/10/12 00:16:06;;;;;;;1.88;1.27;;;;;19.20;101249.00;;;;2082953;28;21034;-55
2021/10/12 00:17:07;;;;;;;1.57;1.00;;;;;19.20;101252.00;;;;2080853;28;20239;-54
2021/10/12 00:18:07;;;;;;;2.07;1.20;;;;;19.20;101249.00;;;;2083271;28;20308;-55
2021/10/12 00:19:07;;;;;;;1.40;0.90;;;;;19.20;101246.00;;;;2081340;28;20225;-55
2021/10/12 00:20:08;;;;;;;2.03;1.40;;;;;19.20;101256.00;;;;2079729;28;20213;-54
2021/10/12 00:21:09;;;;;;;1.77;0.90;;;;;19.20;101250.00;;;;2079479;28;20263;-54
2021/10/12 00:22:09;;;;;;;1.70;0.87;;;;;19.20;101245.00;;;;2079669;28;20981;-54
2021/10/12 00:23:10;;;;;;;1.40;0.90;;;;;19.20;101250.00;;;;2078995;28;20225;-55
2021/10/12 00:24:10;;;;;;;3.60;1.10;;;;;19.20;101245.00;;;;2079027;28;20237;-55
2021/10/12 00:25:10;;;;;;;1.20;1.00;;;;;19.20;101253.00;;;;2081045;28;20386;-54
2021/10/12 00:26:11;;;;;;;1.50;1.20;;;;;19.20;101248.00;;;;2087833;28;20223;-54
2021/10/12 00:27:11;;;;;;;1.70;1.00;;;;;19.20;101248.00;;;;2087975;28;20217;-54
2021/10/12 00:28:11;;;;;;;2.23;1.40;;;;;19.20;101244.00;;;;2088042;28;20701;-54
2021/10/12 00:29:12;;;;;;;2.70;1.20;;;;;19.20;101246.00;;;;2087655;28;20216;-55
2021/10/12 00:30:12;;;;;;;1.40;1.10;;;;;19.20;101247.00;;;;2087982;28;20213;-54
2021/10/12 00:31:12;;;;;;;1.30;0.80;;;;;19.20;101243.00;;;;2087682;28;20221;-54
2021/10/12 00:32:13;;;;;;;1.33;1.00;;;;;19.20;101245.00;;;;2087633;28;20300;-54
2021/10/12 00:33:13;;;;;;;1.90;0.97;;;;;19.20;101245.00;;;;2087420;28;20205;-54
2021/10/12 00:34:13;;;;;;;1.00;0.80;;;;;19.20;101250.00;;;;2082651;28;20695;-54
2021/10/12 00:35:14;;;;;;;1.67;1.03;;;;;19.20;101244.00;;;;2079732;28;20693;-55
2021/10/12 00:36:14;;;;;;;1.63;1.10;;;;;19.20;101247.00;;;;2079662;28;20221;-54
2021/10/12 00:37:15;;;;;;;1.30;0.90;;;;;19.20;101246.00;;;;2079604;28;20698;-54
2021/10/12 00:38:15;;;;;;;1.50;0.93;;;;;19.20;101249.00;;;;2079758;28;20682;-54
2021/10/12 00:39:16;;;;;;;1.10;1.00;;;;;19.20;101249.00;;;;2079297;28;20464;-54
2021/10/12 00:40:16;;;;;;;1.90;1.10;;;;;19.20;101246.00;;;;2079506;28;20217;-54
2021/10/12 00:41:17;;;;;;;2.00;1.10;;;;;19.20;101243.00;;;;2079460;28;20263;-54
2021/10/12 00:42:17;;;;;;;1.37;1.10;;;;;19.20;101245.00;;;;2078225;28;20685;-55
2021/10/12 00:43:22;;;;;;;1.20;1.10;;;;;19.20;101245.00;;;;2074682;28;20224;-54
2021/10/12 00:44:22;;;;;;;1.38;1.13;;;;;19.20;101247.00;;;;2087852;28;20228;-54
2021/10/12 00:45:24;;;;;;;2.10;1.30;;;;;19.20;101240.00;;;;2080631;28;20213;-54
2021/10/12 00:46:25;;;;;;;1.33;1.00;;;;;19.20;101253.00;;;;2082594;28;20217;-54
2021/10/12 00:47:25;;;;;;;1.57;1.20;;;;;19.20;101243.00;;;;2083088;28;20224;-55
2021/10/12 00:48:25;;;;;;;1.30;1.00;;;;;19.20;101244.00;;;;2081256;28;20213;-54
2021/10/12 00:49:26;;;;;;;1.50;1.10;;;;;19.20;101245.00;;;;2078468;28;20287;-54
2021/10/12 00:50:27;;;;;;;1.43;0.80;;;;;19.20;101245.00;;;;2079129;28;20554;-54
2021/10/12 00:51:27;;;;;;;1.08;0.80;;;;;19.20;101240.00;;;;2078921;28;20230;-54
2021/10/12 00:52:27;;;;;;;2.40;1.13;;;;;19.20;101246.00;;;;2079475;28;20213;-54
2021/10/12 00:53:29;;;;;;;1.30;0.87;;;;;19.20;101229.00;;;;2077342;28;20252;-54
2021/10/12 00:54:30;;;;;;;2.25;1.23;;;;;19.20;101240.00;;;;2079014;28;20556;-54
2021/10/12 00:55:30;;;;;;;1.20;1.00;;;;;19.20;101233.00;;;;2078785;28;20214;-54
2021/10/12 00:56:31;;;;;;;1.20;1.00;;;;;19.20;101231.00;;;;2078280;28;20577;-54
2021/10/12 00:57:31;;;;;;;1.23;1.00;;;;;19.20;101230.00;;;;2079536;28;20213;-54
2021/10/12 00:58:31;;;;;;;1.10;0.90;;;;;19.20;101226.00;;;;2087164;28;20232;-54
2021/10/12 00:59:32;;;;;;;2.10;1.13;;;;;19.20;101228.00;;;;2086111;28;20205;-54
2021/10/12 01:00:32;;;;;;;2.17;1.13;;;;;19.20;101225.00;;;;2078141;28;20292;-54
2021/10/12 01:01:32;;;;;;;1.50;0.80;;;;;19.20;101225.00;;;;2078146;28;20210;-54
2021/10/12 01:02:34;;;;;;;1.53;1.13;;;;;19.20;101229.00;;;;2087038;28;20205;-55
2021/10/12 01:03:34;;;;;;;1.30;0.80;;;;;19.20;101229.00;;;;2087210;28;20225;-54
2021/10/12 01:04:34;;;;;;;1.40;1.07;;;;;19.20;101225.00;;;;2086751;28;20331;-55
2021/10/12 01:05:35;;;;;;;1.60;1.20;;;;;19.20;101214.00;;;;2087195;28;20220;-54
2021/10/12 01:06:36;;;;;;;2.10;1.00;;;;;19.20;101221.00;;;;2087193;28;20259;-57
2021/10/12 01:07:36;;;;;;;1.40;1.20;;;;;19.20;101225.00;;;;2087300;28;20810;-55
2021/10/12 01:08:36;;;;;;;0.90;0.83;;;;;19.20;101222.00;;;;2086413;28;20248;-55
2021/10/12 01:09:39;;;;;;;2.03;1.00;;;;;19.20;101220.00;;;;2086026;28;20236;-54
2021/10/12 01:10:39;;;;;;;1.20;0.93;;;;;19.20;101214.00;;;;2086236;28;20216;-55
2021/10/12 01:11:39;;;;;;;1.47;0.97;;;;;19.20;101217.00;;;;2086197;28;20288;-54
2021/10/12 01:12:40;;;;;;;1.93;1.10;;;;;19.20;101221.00;;;;2087194;28;20220;-56
2021/10/12 01:13:40;;;;;;;2.27;1.00;;;;;19.20;101215.00;;;;2087086;28;20216;-54
2021/10/12 01:14:40;;;;;;;1.87;1.10;;;;;19.20;101219.00;;;;2086498;28;20791;-55
2021/10/12 01:15:41;;;;;;;1.70;1.27;;;;;19.20;101209.00;;;;2082663;28;20640;-55
2021/10/12 01:16:41;;;;;;;1.57;0.93;;;;;19.20;101205.00;;;;2083710;28;20345;-55
2021/10/12 01:17:41;;;;;;;1.50;0.97;;;;;19.20;101215.00;;;;2082114;28;20216;-54
2021/10/12 01:19:03;;;;;;;1.63;1.03;;;;;19.20;101213.00;;;;2081665;28;20866;-55
2021/10/12 01:20:05;;;;;;;1.05;0.80;;;;;19.20;101212.00;;;;2078824;28;20209;-54
2021/10/12 01:21:05;;;;;;;1.45;0.95;;;;;19.20;101201.00;;;;2078490;28;20253;-54
2021/10/12 01:22:06;;;;;;;1.37;0.90;;;;;19.20;101210.00;;;;2078856;28;20214;-54
2021/10/12 01:23:06;;;;;;;1.73;1.10;;;;;19.20;101198.00;;;;2086711;28;20212;-54
2021/10/12 01:24:06;;;;;;;1.63;1.00;;;;;19.20;101207.00;;;;2087157;28;20579;-54
2021/10/12 01:25:07;;;;;;;1.33;0.93;;;;;19.20;101210.00;;;;2086017;28;20221;-54
2021/10/12 01:26:08;;;;;;;2.23;1.00;;;;;19.20;101201.00;;;;2078638;28;20233;-54
2021/10/12 01:27:08;;;;;;;1.63;0.97;;;;;19.20;101202.00;;;;2078800;28;20629;-55
2021/10/12 01:28:08;;;;;;;1.50;0.90;;;;;19.20;101198.00;;;;2078575;28;20214;-57
2021/10/12 01:29:11;;;;;;;1.40;1.10;;;;;19.20;101196.00;;;;2077889;28;20267;-56
2021/10/12 01:30:12;;;;;;;1.33;1.15;;;;;19.20;101196.00;;;;2078176;28;20311;-56
2021/10/12 01:31:25;;;;;;;1.03;0.90;;;;;19.20;101199.00;;;;2077970;28;20228;-54
2021/10/12 01:32:26;;;;;;;1.23;1.00;;;;;19.20;101194.00;;;;2078669;28;20209;-54
2021/10/12 01:33:26;;;;;;;1.20;1.00;;;;;19.20;101197.00;;;;2078826;28;20224;-54
2021/10/12 01:34:26;;;;;;;1.53;1.27;;;;;19.20;101191.00;;;;2078805;28;20209;-54
2021/10/12 01:35:27;;;;;;;1.10;0.93;;;;;19.20;101189.00;;;;2078543;28;20217;-54
2021/10/12 01:36:28;;;;;;;2.03;1.00;;;;;19.20;101195.00;;;;2078598;28;20575;-54
2021/10/12 01:37:29;;;;;;;2.57;1.10;;;;;19.20;101193.00;;;;2078127;28;20262;-54
2021/10/12 01:38:33;;;;;;;2.28;1.02;;;;;19.20;101185.00;;;;2078202;28;20470;-54
2021/10/12 01:39:33;;;;;;;1.10;1.00;;;;;19.20;101184.00;;;;2078537;28;20571;-54
2021/10/12 01:40:34;;;;;;;2.00;1.17;;;;;19.20;101181.00;;;;2078696;28;20229;-54
2021/10/12 01:41:34;;;;;;;1.57;0.90;;;;;19.20;101190.00;;;;2078616;28;20254;-54
2021/10/12 01:42:35;;;;;;;1.20;0.93;;;;;19.20;101188.00;;;;2078983;28;20213;-54
2021/10/12 01:43:35;;;;;;;2.07;1.20;;;;;19.20;101181.00;;;;2086636;28;20252;-54
2021/10/12 01:44:35;;;;;;;2.23;1.10;;;;;19.10;101184.00;;;;2087077;28;20265;-55
2021/10/12 01:45:38;;;;;;;1.93;1.00;;;;;19.20;101181.00;;;;2085127;28;20225;-54
2021/10/12 01:46:38;;;;;;;1.33;1.10;;;;;19.20;101183.00;;;;2082062;28;20254;-54
2021/10/12 01:47:39;;;;;;;0.90;0.80;;;;;19.20;101185.00;;;;2081881;28;20231;-54
2021/10/12 01:48:40;;;;;;;1.73;1.20;;;;;19.20;101182.00;;;;2081238;28;20256;-54
2021/10/12 01:49:40;;;;;;;1.63;1.30;;;;;19.20;101181.00;;;;2078533;28;20452;-54
2021/10/12 01:50:40;;;;;;;1.50;1.00;;;;;19.20;101178.00;;;;2078567;28;20206;-55
2021/10/12 01:51:41;;;;;;;1.20;0.83;;;;;19.10;101180.00;;;;2078396;28;20206;-54
2021/10/12 01:52:41;;;;;;;1.67;1.00;;;;;19.20;101183.00;;;;2076083;28;20698;-55
2021/10/12 01:53:41;;;;;;;1.63;1.20;;;;;19.20;101172.00;;;;2079330;28;20831;-54
2021/10/12 01:54:42;;;;;;;1.27;1.07;;;;;19.20;101180.00;;;;2078997;28;20275;-55
2021/10/12 01:55:42;;;;;;;1.87;1.10;;;;;19.20;101172.00;;;;2078913;28;20217;-56
2021/10/12 01:56:43;;;;;;;1.90;1.20;;;;;19.20;101167.00;;;;2079318;28;20821;-55
2021/10/12 01:57:43;;;;;;;1.60;1.10;;;;;19.20;101174.00;;;;2079199;28;20889;-56
2021/10/12 01:58:50;;;;;;;1.47;1.27;;;;;19.20;101164.00;;;;2079069;28;20217;-56
2021/10/12 01:59:50;;;;;;;1.35;1.08;;;;;19.20;101171.00;;;;2083948;28;20251;-55
2021/10/12 02:00:51;;;;;;;1.50;1.10;;;;;19.20;101166.00;;;;2087247;28;20227;-54
2021/10/12 02:01:51;;;;;;;1.47;1.00;;;;;19.20;101164.00;;;;2086785;28;20670;-55
2021/10/12 02:02:51;;;;;;;2.03;1.10;;;;;19.20;101158.00;;;;2086811;28;20288;-54
2021/10/12 02:03:52;;;;;;;1.50;1.10;;;;;19.20;101159.00;;;;2086770;28;20611;-55
2021/10/12 02:04:52;;;;;;;1.57;1.10;;;;;19.20;101160.00;;;;2086759;28;20220;-55
2021/10/12 02:05:52;;;;;;;1.13;0.93;;;;;19.10;101159.00;;;;2087466;28;20211;-54
2021/10/12 02:06:53;;;;;;;1.40;1.00;;;;;19.20;101151.00;;;;2087513;28;20300;-55
2021/10/12 02:07:53;;;;;;;2.37;1.13;;;;;19.20;101156.00;;;;2087319;28;20223;-54
2021/10/12 02:08:53;;;;;;;1.23;0.90;;;;;19.20;101145.00;;;;2086869;28;20263;-55
2021/10/12 02:09:54;;;;;;;1.70;1.20;;;;;19.20;101149.00;;;;2082336;28;20707;-55
2021/10/12 02:10:54;;;;;;;1.20;1.00;;;;;19.20;101134.00;;;;2079123;28;20666;-54
2021/10/12 02:11:54;;;;;;;1.43;1.23;;;;;19.20;101139.00;;;;2078135;28;20563;-54
2021/10/12 02:12:55;;;;;;;1.80;1.20;;;;;19.10;101143.00;;;;2077870;28;20263;-55
2021/10/12 02:13:55;;;;;;;1.20;1.10;;;;;19.20;101142.00;;;;2079154;28;20212;-54
2021/10/12 02:14:56;;;;;;;2.07;1.20;;;;;19.20;101146.00;;;;2079060;28;20221;-54
2021/10/12 02:15:57;;;;;;;1.83;1.43;;;;;19.20;101146.00;;;;2083196;28;20975;-54
2021/10/12 02:16:57;;;;;;;1.60;1.17;;;;;19.20;101150.00;;;;2082758;28;20479;-55
2021/10/12 02:17:57;;;;;;;1.40;1.30;;;;;19.20;101156.00;;;;2081235;28;20209;-54
2021/10/12 02:18:58;;;;;;;1.20;0.80;;;;;19.20;101145.00;;;;2081429;28;20225;-55
2021/10/12 02:19:58;;;;;;;1.33;0.90;;;;;19.20;101142.00;;;;2079100;28;20275;-54
2021/10/12 02:20:59;;;;;;;1.40;1.20;;;;;19.20;101136.00;;;;2079050;28;20297;-54
2021/10/12 02:21:59;;;;;;;1.90;1.30;;;;;19.20;101147.00;;;;2081823;28;20270;-54
2021/10/12 02:22:59;;;;;;;1.60;1.10;;;;;19.20;101141.00;;;;2087382;28;20701;-54
2021/10/12 02:23:59;;;;;;;1.20;0.90;;;;;19.20;101140.00;;;;2087345;28;20679;-54
2021/10/12 02:25:00;;;;;;;1.47;1.10;;;;;19.10;101143.00;;;;2087144;28;20205;-54
2021/10/12 02:26:00;;;;;;;1.27;1.10;;;;;19.20;101137.00;;;;2087378;28;20212;-55
2021/10/12 02:27:01;;;;;;;1.40;0.97;;;;;19.10;101132.00;;;;2087328;28;20205;-54
2021/10/12 02:28:01;;;;;;;1.07;0.80;;;;;19.20;101138.00;;;;2087302;28;20213;-55
2021/10/12 02:29:01;;;;;;;1.97;1.37;;;;;19.10;101130.00;;;;2087907;28;20205;-54
2021/10/12 02:30:03;;;;;;;1.47;1.10;;;;;19.10;101129.00;;;;2088699;28;20215;-54
2021/10/12 02:31:04;;;;;;;1.50;1.20;;;;;19.20;101132.00;;;;2088938;28;20701;-55
2021/10/12 02:32:04;;;;;;;1.30;0.93;;;;;19.10;101133.00;;;;2088760;28;20215;-54
2021/10/12 02:33:04;;;;;;;1.50;1.10;;;;;19.20;101121.00;;;;2089040;28;20237;-54
2021/10/12 02:34:05;;;;;;;1.80;1.20;;;;;19.20;101127.00;;;;2085944;28;20587;-54
2021/10/12 02:35:05;;;;;;;1.23;1.00;;;;;19.10;101125.00;;;;2088770;28;20228;-55
2021/10/12 02:36:06;;;;;;;2.37;1.13;;;;;19.10;101129.00;;;;2087544;28;20212;-54
2021/10/12 02:37:06;;;;;;;1.70;1.23;;;;;19.20;101129.00;;;;2080805;28;20290;-54
2021/10/12 02:38:07;;;;;;;1.70;1.00;;;;;19.20;101120.00;;;;2080735;28;20416;-54
2021/10/12 02:39:07;;;;;;;1.67;1.10;;;;;19.20;101123.00;;;;2079550;28;22301;-54
2021/10/12 02:40:08;;;;;;;1.70;1.13;;;;;19.20;101115.00;;;;2079882;28;20710;-54
2021/10/12 02:41:08;;;;;;;1.20;1.10;;;;;19.20;101113.00;;;;2080586;28;20231;-54
2021/10/12 02:42:09;;;;;;;2.10;1.00;;;;;19.20;101116.00;;;;2088655;28;20766;-54
2021/10/12 02:43:09;;;;;;;1.97;1.20;;;;;19.20;101112.00;;;;2088803;28;20585;-54
2021/10/12 02:44:09;;;;;;;2.20;1.10;;;;;19.20;101117.00;;;;2088940;28;20303;-55
2021/10/12 02:45:10;;;;;;;1.77;1.20;;;;;19.20;101109.00;;;;2088845;28;20219;-54
2021/10/12 02:46:10;;;;;;;1.63;1.20;;;;;19.20;101103.00;;;;2084293;28;20213;-55
2021/10/12 02:47:10;;;;;;;1.60;1.43;;;;;19.20;101112.00;;;;2084037;28;20214;-54
2021/10/12 02:48:11;;;;;;;1.60;1.20;;;;;19.20;101101.00;;;;2083843;28;20216;-54
2021/10/12 02:49:11;;;;;;;1.50;1.03;;;;;19.20;101099.00;;;;2081216;28;20741;-54
2021/10/12 02:50:11;;;;;;;1.57;1.20;;;;;19.20;101106.00;;;;2079421;28;20584;-54
2021/10/12 02:51:12;;;;;;;1.10;0.90;;;;;19.10;101101.00;;;;2080391;28;20371;-54
2021/10/12 02:52:12;;;;;;;1.17;1.07;;;;;19.20;101095.00;;;;2085225;28;20310;-54
2021/10/12 02:53:13;;;;;;;1.37;1.07;;;;;19.20;101100.00;;;;2088862;28;20223;-54
2021/10/12 02:54:13;;;;;;;1.00;0.90;;;;;19.20;101101.00;;;;2088729;28;20266;-54
2021/10/12 02:55:14;;;;;;;2.00;1.50;;;;;19.20;101095.00;;;;2088729;28;20278;-54
2021/10/12 02:56:14;;;;;;;1.33;1.00;;;;;19.20;101102.00;;;;2085287;28;20332;-54
2021/10/12 02:57:14;;;;;;;1.20;0.97;;;;;19.20;101096.00;;;;2086992;28;20271;-54
2021/10/12 02:58:15;;;;;;;1.73;1.30;;;;;19.20;101092.00;;;;2088881;28;20295;-54
2021/10/12 02:59:15;;;;;;;1.90;1.20;;;;;19.20;101078.00;;;;2088327;28;20300;-55
2021/10/12 03:00:16;;;;;;;1.50;1.20;;;;;19.10;101084.00;;;;2076286;28;20212;-54
2021/10/12 03:01:16;;;;;;;1.40;1.20;;;;;19.20;101081.00;;;;2096267;28;20220;-54
2021/10/12 03:02:16;;;;;;;1.97;1.47;;;;;19.20;101079.00;;;;2088933;28;20273;-54
2021/10/12 03:03:17;;;;;;;2.17;1.20;;;;;19.20;101069.00;;;;2088789;28;20212;-54
2021/10/12 03:04:17;;;;;;;1.80;1.60;;;;;19.20;101076.00;;;;2088779;28;20220;-54
2021/10/12 03:05:17;;;;;;;1.20;1.03;;;;;19.10;101059.00;;;;2088713;28;20212;-54
2021/10/12 03:06:18;;;;;;;1.90;1.47;;;;;19.20;101059.00;;;;2088756;28;20525;-54
2021/10/12 03:07:19;;;;;;;1.90;1.40;;;;;19.20;101051.00;;;;2088592;28;20243;-54
2021/10/12 03:08:19;;;;;;;1.73;1.43;;;;;19.10;101056.00;;;;2088620;28;20351;-55
2021/10/12 03:09:19;;;;;;;1.67;1.43;;;;;19.20;101061.00;;;;2083580;28;20575;-54
2021/10/12 03:10:20;;;;;;;1.50;1.33;;;;;19.10;101055.00;;;;2080334;28;20971;-54
2021/10/12 03:11:20;;;;;;;1.30;1.20;;;;;19.10;101054.00;;;;2080441;28;20772;-55
2021/10/12 03:12:20;;;;;;;1.80;1.30;;;;;19.10;101065.00;;;;2080185;28;20218;-54
2021/10/12 03:13:21;;;;;;;1.50;1.40;;;;;19.10;101056.00;;;;2080467;28;20324;-55
2021/10/12 03:14:21;;;;;;;2.40;1.70;;;;;19.20;101057.00;;;;2080319;28;20241;-54
2021/10/12 03:15:21;;;;;;;1.53;1.30;;;;;19.20;101059.00;;;;2080346;28;20213;-54
2021/10/12 03:16:22;;;;;;;1.33;1.23;;;;;19.20;101050.00;;;;2088105;28;20217;-54
2021/10/12 03:17:22;;;;;;;1.30;1.00;;;;;19.10;101055.00;;;;2083271;28;20308;-54
2021/10/12 03:18:22;;;;;;;1.47;1.27;;;;;19.20;101051.00;;;;2082691;28;20208;-55
2021/10/12 03:19:23;;;;;;;1.53;1.30;;;;;19.10;101048.00;;;;2081430;28;20682;-54
2021/10/12 03:20:23;;;;;;;2.10;1.37;;;;;19.10;101054.00;;;;2088399;28;20220;-57
2021/10/12 03:21:24;;;;;;;1.50;1.30;;;;;19.10;101052.00;;;;2088548;28;20641;-56
2021/10/12 03:22:25;;;;;;;2.10;1.38;;;;;19.10;101043.00;;;;2085896;28;20211;-56
2021/10/12 03:23:26;;;;;;;2.33;1.50;;;;;19.10;101040.00;;;;2080325;28;20293;-55
2021/10/12 03:24:26;;;;;;;1.40;1.17;;;;;19.10;101039.00;;;;2080411;28;20455;-55
2021/10/12 03:25:27;;;;;;;2.43;1.40;;;;;19.10;101036.00;;;;2080196;28;20233;-56
2021/10/12 03:26:29;;;;;;;2.57;1.53;;;;;19.20;101049.00;;;;2080492;28;20675;-54
2021/10/12 03:27:30;;;;;;;1.42;1.20;;;;;19.20;101034.00;;;;2085673;28;20209;-54
2021/10/12 03:28:30;;;;;;;1.50;1.30;;;;;19.10;101040.00;;;;2088368;28;20331;-55
2021/10/12 03:29:30;;;;;;;1.40;1.27;;;;;19.10;101041.00;;;;2088104;28;20212;-55
2021/10/12 03:30:34;;;;;;;2.00;1.80;;;;;19.10;101024.00;;;;2088469;28;20262;-55
2021/10/12 03:31:34;;;;;;;1.73;1.63;;;;;19.10;101031.00;;;;2088653;28;20271;-54
2021/10/12 03:32:35;;;;;;;1.80;1.20;;;;;19.10;101023.00;;;;2088387;28;20224;-55
2021/10/12 03:33:35;;;;;;;1.43;1.33;;;;;19.20;101033.00;;;;2088075;28;20745;-54
2021/10/12 03:34:36;;;;;;;1.63;1.53;;;;;19.10;101035.00;;;;2076861;28;20248;-55
2021/10/12 03:35:45;;;;;;;1.67;1.58;;;;;19.10;101031.00;;;;2078565;28;20223;-55
2021/10/12 03:36:45;;;;;;;1.38;1.10;;;;;19.20;101028.00;;;;2079897;28;21061;-54
2021/10/12 03:37:46;;;;;;;1.30;1.20;;;;;19.20;101041.00;;;;2087957;28;20229;-54
2021/10/12 03:38:46;;;;;;;2.40;1.63;;;;;19.20;101043.00;;;;2088256;28;20603;-55
2021/10/12 03:39:46;;;;;;;1.97;1.40;;;;;19.20;101049.00;;;;2087997;28;20231;-54
2021/10/12 03:40:47;;;;;;;1.40;1.30;;;;;19.20;101043.00;;;;2087344;28;20212;-55
2021/10/12 03:41:47;;;;;;;1.60;1.50;;;;;19.20;101039.00;;;;2087006;28;20630;-55
2021/10/12 03:42:48;;;;;;;1.57;1.40;;;;;19.20;101054.00;;;;2085805;28;20239;-54
2021/10/12 03:43:48;;;;;;;1.50;1.33;;;;;19.10;101054.00;;;;2088457;28;20225;-54
2021/10/12 03:44:48;;;;;;;1.70;1.60;;;;;19.10;101048.00;;;;2085531;28;20253;-54
2021/10/12 03:45:49;;;;;;;1.80;1.37;;;;;19.10;101056.00;;;;2083314;28;20298;-54
2021/10/12 03:46:50;;;;;;;1.60;1.50;;;;;19.20;101049.00;;;;2084680;28;20222;-54
2021/10/12 03:47:50;;;;;;;2.07;1.60;;;;;19.20;101047.00;;;;2082764;28;20225;-54
2021/10/12 03:48:50;;;;;;;1.93;1.30;;;;;19.20;101056.00;;;;2082988;28;20206;-54
2021/10/12 03:49:51;;;;;;;1.60;1.40;;;;;19.20;101052.00;;;;2088213;28;20602;-54
2021/10/12 03:50:51;;;;;;;1.70;1.60;;;;;19.20;101040.00;;;;2088384;28;20244;-54
2021/10/12 03:51:51;;;;;;;1.90;1.77;;;;;19.20;101043.00;;;;2088232;28;20220;-54
2021/10/12 03:52:52;;;;;;;1.83;1.37;;;;;19.20;101046.00;;;;2088154;28;20220;-54
2021/10/12 03:53:52;;;;;;;2.50;1.50;;;;;19.10;101038.00;;;;2088414;28;20705;-54
2021/10/12 03:54:53;;;;;;;1.57;1.47;;;;;19.10;101038.00;;;;2088285;28;20312;-54
2021/10/12 03:55:54;;;;;;;2.03;1.37;;;;;19.10;101043.00;;;;2088263;28;20237;-55
2021/10/12 03:56:54;;;;;;;2.00;1.50;;;;;19.10;101035.00;;;;2087855;28;20990;-54
2021/10/12 03:57:54;;;;;;;1.50;1.33;;;;;19.20;101026.00;;;;2086954;28;20219;-55
2021/10/12 03:58:55;;;;;;;2.40;1.83;;;;;19.10;101030.00;;;;2087910;28;20294;-54
2021/10/12 03:59:55;;;;;;;1.27;1.17;;;;;19.20;101025.00;;;;2088192;28;20227;-54
2021/10/12 04:00:56;;;;;;;1.60;1.10;;;;;19.20;101029.00;;;;2087956;28;20223;-54
2021/10/12 04:01:58;;;;;;;1.90;1.60;;;;;19.20;101025.00;;;;2085772;28;20244;-54
2021/10/12 04:02:58;;;;;;;1.37;1.27;;;;;19.20;101019.00;;;;2088303;28;20274;-54
2021/10/12 04:03:59;;;;;;;1.63;1.47;;;;;19.10;101019.00;;;;2088379;28;20216;-54
2021/10/12 04:05:00;;;;;;;1.77;1.67;;;;;19.10;101016.00;;;;2088013;28;20451;-56
2021/10/12 04:06:00;;;;;;;1.67;1.40;;;;;19.20;101009.00;;;;2083241;28;20503;-56
2021/10/12 04:07:00;;;;;;;1.80;1.70;;;;;19.10;101005.00;;;;2079979;28;20216;-54
2021/10/12 04:08:01;;;;;;;1.50;1.40;;;;;19.20;101005.00;;;;2080112;28;20718;-55
2021/10/12 04:09:01;;;;;;;1.80;1.70;;;;;19.20;101016.00;;;;2079629;28;20279;-56
2021/10/12 04:10:02;;;;;;;1.73;1.33;;;;;19.20;101016.00;;;;2079808;28;20300;-55
2021/10/12 04:11:03;;;;;;;1.30;1.20;;;;;19.20;101010.00;;;;2079997;28;20214;-56
2021/10/12 04:12:03;;;;;;;1.67;1.40;;;;;19.10;101008.00;;;;2079850;28;20568;-55
2021/10/12 04:13:05;;;;;;;1.63;1.43;;;;;19.10;101010.00;;;;2079861;28;20260;-56
2021/10/12 04:14:05;;;;;;;1.48;1.38;;;;;19.10;100997.00;;;;2079957;28;20221;-55
2021/10/12 04:15:06;;;;;;;2.07;1.80;;;;;19.20;101007.00;;;;2079817;28;20594;-55
2021/10/12 04:16:06;;;;;;;1.40;1.30;;;;;19.20;101003.00;;;;2085540;28;20240;-55
2021/10/12 04:17:06;;;;;;;1.50;1.40;;;;;19.10;101000.00;;;;2082697;28;20212;-55
2021/10/12 04:18:10;;;;;;;1.60;1.50;;;;;19.20;100959.00;;;;2082392;28;20283;-54
2021/10/12 04:19:10;;;;;;;1.98;1.40;;;;;19.10;101003.00;;;;2079625;28;20641;-55
2021/10/12 04:20:10;;;;;;;2.00;1.43;;;;;19.20;101003.00;;;;2083112;28;20220;-54
2021/10/12 04:21:11;;;;;;;1.77;1.50;;;;;19.10;100991.00;;;;2079930;28;20729;-55
2021/10/12 04:22:11;;;;;;;2.00;1.80;;;;;19.10;100994.00;;;;2079910;28;20216;-55
2021/10/12 04:23:13;;;;;;;1.90;1.53;;;;;19.10;100994.00;;;;2079894;28;20890;-55
2021/10/12 04:24:13;;;;;;;1.70;1.60;;;;;19.10;100995.00;;;;2079877;28;20221;-55
2021/10/12 04:25:14;;;;;;;1.87;1.50;;;;;19.10;100987.00;;;;2079713;28;20570;-54
2021/10/12 04:26:16;;;;;;;1.93;1.73;;;;;19.10;100987.00;;;;2076571;28;20310;-55
2021/10/12 04:27:17;;;;;;;1.60;1.50;;;;;19.10;100978.00;;;;2079871;28;20244;-55
2021/10/12 04:28:17;;;;;;;1.55;1.40;;;;;19.20;100976.00;;;;2079631;28;20690;-55
2021/10/12 04:29:17;;;;;;;1.43;1.23;;;;;19.10;100973.00;;;;2079477;28;20212;-54
2021/10/12 04:30:18;;;;;;;1.40;1.30;;;;;19.10;100970.00;;;;2081015;28;20690;-54
2021/10/12 04:31:18;;;;;;;2.43;1.90;;;;;19.10;100980.00;;;;2087885;28;20780;-55
2021/10/12 04:32:18;;;;;;;1.93;1.70;;;;;19.10;100968.00;;;;2086153;28;20248;-54
2021/10/12 04:33:19;;;;;;;1.90;1.70;;;;;19.10;100979.00;;;;2079647;28;20216;-55
2021/10/12 04:34:19;;;;;;;1.90;1.60;;;;;19.20;100969.00;;;;2079200;28;20216;-54
2021/10/12 04:35:20;;;;;;;1.67;1.47;;;;;19.20;100981.00;;;;2079721;28;20224;-55
2021/10/12 04:36:21;;;;;;;2.35;1.60;;;;;19.20;100982.00;;;;2079090;28;20574;-54
2021/10/12 04:37:21;;;;;;;1.30;1.20;;;;;19.20;100978.00;;;;2083471;28;20269;-54
2021/10/12 04:38:21;;;;;;;1.60;1.40;;;;;19.10;100976.00;;;;2087311;28;20666;-55
2021/10/12 04:39:22;;;;;;;1.80;1.60;;;;;19.20;100986.00;;;;2087566;28;20220;-54
2021/10/12 04:40:23;;;;;;;2.10;1.90;;;;;19.10;100975.00;;;;2087931;28;20217;-54
2021/10/12 04:41:23;;;;;;;1.80;1.60;;;;;19.10;100984.00;;;;2087867;28;20224;-54
2021/10/12 04:42:24;;;;;;;1.93;1.43;;;;;19.10;100982.00;;;;2087939;28;20220;-54
2021/10/12 04:43:24;;;;;;;1.90;1.60;;;;;19.10;100982.00;;;;2086432;28;20213;-55
2021/10/12 04:44:28;;;;;;;1.47;1.23;;;;;19.10;100980.00;;;;2087304;28;20225;-54
2021/10/12 04:45:29;;;;;;;1.70;1.40;;;;;19.20;100984.00;;;;2083048;28;20217;-54
2021/10/12 04:46:29;;;;;;;2.70;1.67;;;;;19.10;100968.00;;;;2082473;28;20216;-54
2021/10/12 04:47:30;;;;;;;1.57;1.40;;;;;19.10;100965.00;;;;2079502;28;20240;-54
2021/10/12 04:48:30;;;;;;;1.70;1.60;;;;;19.10;100966.00;;;;2071988;28;20301;-54
2021/10/12 04:49:30;;;;;;;2.23;1.97;;;;;19.10;100977.00;;;;2078098;28;20284;-54
2021/10/12 04:50:32;;;;;;;2.20;1.80;;;;;19.10;100965.00;;;;2079322;28;20710;-54
2021/10/12 04:51:32;;;;;;;1.58;1.40;;;;;19.10;100971.00;;;;2078816;28;20709;-54
2021/10/12 04:52:33;;;;;;;2.00;1.80;;;;;19.10;100970.00;;;;2077802;28;20217;-54
2021/10/12 04:53:33;;;;;;;4.43;2.00;;;;;19.10;100973.00;;;;2078270;28;20289;-54
2021/10/12 04:54:34;;;;;;;1.60;1.50;;;;;19.10;100970.00;;;;2079248;28;20292;-54
2021/10/12 04:55:40;;;;;;;2.37;1.80;;;;;19.10;100974.00;;;;2078922;28;20210;-54
2021/10/12 04:56:40;;;;;;;2.17;1.88;;;;;19.10;100962.00;;;;2078691;28;20232;-54
2021/10/12 04:57:41;;;;;;;1.53;1.43;;;;;19.10;100957.00;;;;2079213;28;20301;-55
2021/10/12 04:58:42;;;;;;;1.70;1.50;;;;;19.10;100967.00;;;;2079324;28;20217;-56
2021/10/12 04:59:42;;;;;;;2.07;1.87;;;;;19.10;100957.00;;;;2069985;28;20287;-55
2021/10/12 05:00:43;;;;;;;1.77;1.63;;;;;19.10;100963.00;;;;2095151;28;20525;-54